Time;durP1;ratioP1;P1;durP2;ratioP2;P2;SDS_P1;SDS_P2;PMS_P1;PMS_P2;Temp;Humidity;BMP_temperature;BMP_pressure;BME280_temperature;BME280_humidity;BME280_pressure;Samples;Min_cycle;Max_cycle;Signal;HPM_P1;HPM_P2
2022/08/06 00:01:07;;;;;;;2.10;1.43;;;16.10;99.90;;;;;;5054391;28;20198;-74
2022/08/06 00:03:32;;;;;;;1.10;1.00;;;16.10;99.90;;;;;;5054239;28;20779;-74
2022/08/06 00:05:58;;;;;;;4.80;1.40;;;16.00;99.90;;;;;;5054043;28;20245;-74
2022/08/06 00:08:24;;;;;;;1.40;1.03;;;16.00;99.90;;;;;;5054244;28;20176;-74
2022/08/06 00:10:49;;;;;;;1.40;1.30;;;16.00;99.90;;;;;;5054200;28;20206;-74
2022/08/06 00:13:15;;;;;;;1.53;1.10;;;15.90;99.90;;;;;;5054250;28;20262;-74
2022/08/06 00:15:41;;;;;;;3.73;1.40;;;15.90;99.90;;;;;;5053668;28;20203;-69
2022/08/06 00:18:06;;;;;;;2.73;1.50;;;15.90;99.90;;;;;;5053870;28;20587;-69
2022/08/06 00:20:32;;;;;;;1.70;1.37;;;16.00;99.90;;;;;;5053973;28;20171;-69
2022/08/06 00:22:59;;;;;;;2.33;1.83;;;15.90;99.90;;;;;;5051805;28;21390;-69
2022/08/06 00:25:24;;;;;;;2.17;1.90;;;15.80;99.90;;;;;;5053271;28;20166;-69
2022/08/06 00:27:50;;;;;;;5.50;4.50;;;15.80;99.90;;;;;;5053643;28;20421;-69
2022/08/06 00:30:15;;;;;;;3.33;1.43;;;15.70;99.90;;;;;;5053936;28;20199;-69
2022/08/06 00:32:41;;;;;;;1.20;1.10;;;15.70;99.90;;;;;;5052134;28;20194;-69
2022/08/06 00:35:06;;;;;;;5.03;1.30;;;15.70;99.90;;;;;;5053479;28;20634;-69
2022/08/06 00:37:32;;;;;;;2.97;1.67;;;15.70;99.90;;;;;;5053784;28;20566;-70
2022/08/06 00:40:01;;;;;;;2.80;1.40;;;15.60;99.90;;;;;;5053412;28;20171;-69
2022/08/06 00:42:27;;;;;;;1.83;1.33;;;15.60;99.90;;;;;;5053693;28;20575;-69
2022/08/06 00:44:53;;;;;;;1.00;0.90;;;15.50;99.90;;;;;;5053226;28;20398;-68
2022/08/06 00:47:19;;;;;;;1.20;1.00;;;15.50;99.90;;;;;;5053343;28;20405;-69
2022/08/06 00:49:44;;;;;;;1.70;1.60;;;15.40;99.90;;;;;;5053443;28;20199;-69
2022/08/06 00:52:10;;;;;;;2.23;1.20;;;15.30;99.90;;;;;;5053871;28;20191;-69
2022/08/06 00:54:35;;;;;;;1.80;1.10;;;15.40;99.90;;;;;;5055998;28;20179;-69
2022/08/06 00:57:01;;;;;;;1.10;1.00;;;15.30;99.90;;;;;;5053480;28;20286;-69
2022/08/06 00:59:27;;;;;;;1.63;1.30;;;15.30;99.90;;;;;;5053331;28;20254;-68
2022/08/06 01:01:52;;;;;;;0.83;0.83;;;15.20;99.90;;;;;;5052820;28;20515;-69
2022/08/06 01:04:19;;;;;;;3.57;1.83;;;15.20;99.90;;;;;;5053139;28;20167;-69
2022/08/06 01:06:44;;;;;;;7.77;5.27;;;15.20;99.90;;;;;;5052979;28;20216;-69
2022/08/06 01:09:10;;;;;;;5.80;3.50;;;15.20;99.90;;;;;;5053207;28;20775;-69
2022/08/06 01:11:36;;;;;;;4.10;1.90;;;15.10;99.90;;;;;;5051710;28;20233;-68
2022/08/06 01:14:02;;;;;;;1.80;1.23;;;15.00;99.90;;;;;;5053050;28;20249;-68
2022/08/06 01:16:44;;;;;;;5.03;3.10;;;15.00;99.90;;;;;;5052567;28;20449;-69
2022/08/06 01:19:24;;;;;;;1.77;1.67;;;15.10;99.90;;;;;;5051882;28;20205;-68
2022/08/06 01:22:09;;;;;;;3.00;1.20;;;15.00;99.90;;;;;;5053801;28;20428;-70
2022/08/06 01:24:56;;;;;;;1.10;1.00;;;15.00;99.90;;;;;;5054291;28;20406;-69
2022/08/06 01:27:50;;;;;;;1.20;0.90;;;15.10;99.90;;;;;;5055599;28;20750;-71
2022/08/06 01:30:23;;;;;;;6.40;4.37;;;14.90;99.90;;;;;;5052924;28;20845;-70
2022/08/06 01:32:54;;;;;;;1.33;1.20;;;14.90;99.90;;;;;;5052975;28;20409;-68
2022/08/06 01:35:27;;;;;;;4.80;3.23;;;14.90;99.90;;;;;;5050229;28;20421;-68
2022/08/06 01:38:03;;;;;;;2.60;1.40;;;14.90;99.90;;;;;;5052932;28;20896;-70
2022/08/06 01:40:32;;;;;;;2.60;1.03;;;14.90;99.90;;;;;;5052423;28;20412;-68
2022/08/06 01:43:00;;;;;;;1.73;1.30;;;14.90;99.90;;;;;;5052176;28;20426;-68
2022/08/06 01:45:29;;;;;;;5.10;1.50;;;15.00;99.90;;;;;;5052411;28;20773;-69
2022/08/06 01:48:00;;;;;;;3.40;1.37;;;14.80;99.90;;;;;;5052542;28;20917;-68
2022/08/06 01:50:34;;;;;;;1.40;0.87;;;14.80;99.90;;;;;;5052087;28;20570;-68
2022/08/06 01:53:02;;;;;;;1.20;1.10;;;14.70;99.90;;;;;;5052292;28;20781;-68
2022/08/06 01:55:32;;;;;;;1.00;1.00;;;14.70;99.90;;;;;;5051801;28;20406;-69
2022/08/06 01:58:02;;;;;;;1.30;1.20;;;14.60;99.90;;;;;;5052084;28;20438;-68
2022/08/06 02:00:29;;;;;;;1.20;1.00;;;14.50;99.90;;;;;;5051993;28;20930;-69
2022/08/06 02:02:59;;;;;;;1.10;0.90;;;14.50;99.90;;;;;;5051821;28;20812;-69
2022/08/06 02:05:26;;;;;;;1.63;0.90;;;14.50;99.90;;;;;;5051533;28;20876;-69
2022/08/06 02:07:53;;;;;;;2.13;1.37;;;14.50;99.90;;;;;;5051758;28;20884;-69
2022/08/06 02:10:22;;;;;;;4.30;1.20;;;14.40;99.90;;;;;;5051719;28;20529;-69
2022/08/06 02:12:49;;;;;;;1.07;0.97;;;14.40;99.90;;;;;;5052034;28;20421;-70
2022/08/06 02:15:19;;;;;;;1.53;1.13;;;14.40;99.90;;;;;;5051654;28;20393;-70
2022/08/06 02:17:52;;;;;;;2.20;1.00;;;14.40;99.90;;;;;;5052030;28;20421;-70
2022/08/06 02:20:23;;;;;;;1.10;1.00;;;14.30;99.90;;;;;;5051765;28;20412;-70
2022/08/06 02:22:50;;;;;;;2.43;2.27;;;14.30;99.90;;;;;;5052233;28;20425;-70
2022/08/06 02:25:17;;;;;;;1.40;1.10;;;14.20;99.90;;;;;;5051830;28;20409;-70
2022/08/06 02:27:50;;;;;;;1.27;1.00;;;14.10;99.90;;;;;;5051989;28;20775;-70
2022/08/06 02:30:16;;;;;;;1.60;0.87;;;14.20;99.90;;;;;;5052132;28;20489;-70
2022/08/06 02:32:42;;;;;;;1.10;1.00;;;14.20;99.90;;;;;;5051922;28;20433;-70
2022/08/06 02:35:09;;;;;;;1.00;0.90;;;14.10;99.90;;;;;;5051273;28;20462;-70
2022/08/06 02:37:51;;;;;;;2.00;1.00;;;14.10;99.90;;;;;;5051842;28;20959;-70
2022/08/06 02:40:24;;;;;;;2.37;1.10;;;14.00;99.90;;;;;;5053348;28;20410;-70
2022/08/06 02:43:04;;;;;;;0.90;0.90;;;14.00;99.90;;;;;;5052621;28;20431;-70
2022/08/06 02:45:48;;;;;;;1.33;0.90;;;13.90;99.90;;;;;;5051639;28;20401;-70
2022/08/06 02:48:56;;;;;;;1.10;1.00;;;13.90;99.90;;;;;;5051391;28;20462;-70
2022/08/06 02:51:30;;;;;;;1.80;0.90;;;14.00;99.90;;;;;;5009548;28;20956;-70
2022/08/06 02:54:08;;;;;;;2.30;2.10;;;14.00;99.90;;;;;;5009885;28;20512;-70
2022/08/06 02:56:40;;;;;;;1.93;0.90;;;14.00;99.90;;;;;;5039359;28;20530;-71
2022/08/06 02:59:07;;;;;;;2.33;1.10;;;13.90;99.90;;;;;;5055847;28;20406;-71
2022/08/06 03:01:41;;;;;;;1.27;1.00;;;13.90;99.90;;;;;;5055732;28;20435;-70
2022/08/06 03:04:08;;;;;;;1.30;1.20;;;13.80;99.90;;;;;;5055495;28;20408;-70
2022/08/06 03:06:36;;;;;;;0.70;0.70;;;13.80;99.90;;;;;;5055479;28;20421;-70
2022/08/06 03:09:04;;;;;;;1.43;0.90;;;13.80;99.90;;;;;;5055896;28;20413;-70
2022/08/06 03:11:33;;;;;;;0.90;0.90;;;13.80;99.90;;;;;;5055450;28;20510;-70
2022/08/06 03:14:03;;;;;;;1.70;0.93;;;13.90;99.90;;;;;;5055402;28;20416;-70
2022/08/06 03:16:35;;;;;;;1.10;1.00;;;13.80;99.90;;;;;;5054985;28;20483;-70
2022/08/06 03:19:02;;;;;;;1.63;1.10;;;13.80;99.90;;;;;;5055054;28;20935;-70
2022/08/06 03:21:30;;;;;;;1.23;1.00;;;13.70;99.90;;;;;;5055308;28;20527;-70
2022/08/06 03:23:58;;;;;;;1.13;0.93;;;13.80;99.90;;;;;;5055186;28;20439;-70
2022/08/06 03:26:26;;;;;;;2.33;1.03;;;13.70;99.90;;;;;;5054701;28;20415;-70
2022/08/06 03:28:55;;;;;;;0.83;0.83;;;13.80;99.90;;;;;;5055014;28;20923;-70
2022/08/06 03:31:22;;;;;;;1.03;0.90;;;13.70;99.90;;;;;;5054778;28;20437;-70
2022/08/06 03:33:48;;;;;;;1.23;1.10;;;13.60;99.90;;;;;;5054852;28;20904;-70
2022/08/06 03:36:14;;;;;;;0.70;0.70;;;13.60;99.90;;;;;;5054475;28;20820;-70
2022/08/06 03:38:44;;;;;;;0.93;0.90;;;13.60;99.90;;;;;;5055030;28;20496;-70
2022/08/06 03:41:12;;;;;;;2.77;0.80;;;13.60;99.90;;;;;;5054806;28;20309;-70
2022/08/06 03:43:38;;;;;;;1.10;1.00;;;13.50;99.90;;;;;;5054704;28;20412;-70
2022/08/06 03:46:06;;;;;;;0.97;0.90;;;13.50;99.90;;;;;;5054468;28;20795;-70
2022/08/06 03:48:38;;;;;;;0.80;0.80;;;13.50;99.90;;;;;;5054677;28;20277;-70
2022/08/06 03:51:11;;;;;;;0.90;0.90;;;13.50;99.90;;;;;;5054554;28;20562;-70
2022/08/06 03:53:39;;;;;;;1.37;1.27;;;13.50;99.90;;;;;;5054439;28;20433;-70
2022/08/06 03:56:07;;;;;;;1.80;1.00;;;13.50;99.90;;;;;;5054054;28;20519;-70
2022/08/06 03:58:36;;;;;;;7.40;1.43;;;13.50;99.90;;;;;;5054453;28;20914;-70
2022/08/06 04:01:09;;;;;;;1.40;1.07;;;13.50;99.90;;;;;;5054353;28;20426;-70
2022/08/06 04:03:36;;;;;;;1.23;1.13;;;13.50;99.90;;;;;;5054223;28;20416;-70
2022/08/06 04:06:02;;;;;;;1.90;1.77;;;13.50;99.90;;;;;;5052825;28;20414;-70
2022/08/06 04:08:29;;;;;;;1.27;1.17;;;13.50;99.90;;;;;;5054373;28;20406;-70
2022/08/06 04:10:56;;;;;;;1.20;0.83;;;13.50;99.90;;;;;;5054130;28;20452;-70
2022/08/06 04:13:23;;;;;;;1.30;1.20;;;13.50;99.90;;;;;;5054120;28;20413;-70
2022/08/06 04:15:50;;;;;;;5.77;1.43;;;13.50;99.90;;;;;;5053740;28;20959;-70
2022/08/06 04:18:19;;;;;;;1.10;0.97;;;13.50;99.90;;;;;;5054168;28;20406;-70
2022/08/06 04:20:52;;;;;;;0.90;0.90;;;13.50;99.90;;;;;;5053994;28;20433;-70
2022/08/06 04:23:18;;;;;;;1.70;1.20;;;13.60;99.90;;;;;;5054066;28;20405;-70
2022/08/06 04:25:53;;;;;;;1.73;1.20;;;13.60;99.90;;;;;;5054614;28;21156;-70
2022/08/06 04:28:20;;;;;;;1.43;0.90;;;13.70;99.90;;;;;;5056142;28;20170;-70
2022/08/06 04:30:47;;;;;;;1.07;1.00;;;13.70;99.90;;;;;;5057792;28;20433;-70
2022/08/06 04:33:17;;;;;;;1.33;1.13;;;13.70;99.90;;;;;;5056443;28;20410;-70
2022/08/06 04:35:42;;;;;;;2.10;1.17;;;13.80;99.90;;;;;;5051984;28;20496;-70
2022/08/06 04:38:09;;;;;;;1.33;1.20;;;13.70;99.90;;;;;;5053696;28;20891;-69
2022/08/06 04:40:37;;;;;;;3.00;2.07;;;13.70;99.90;;;;;;5053772;28;20163;-70
2022/08/06 04:43:08;;;;;;;1.77;1.60;;;13.80;99.90;;;;;;5054017;28;20448;-70
2022/08/06 04:45:37;;;;;;;2.00;1.40;;;13.80;99.90;;;;;;5053794;28;20493;-70
2022/08/06 04:48:06;;;;;;;1.40;1.13;;;13.90;99.90;;;;;;5053760;28;20975;-70
2022/08/06 04:50:31;;;;;;;0.80;0.80;;;13.90;99.90;;;;;;5053475;28;20405;-70
2022/08/06 04:53:09;;;;;;;1.63;1.30;;;13.80;99.90;;;;;;5053670;28;20460;-70
2022/08/06 04:55:35;;;;;;;2.60;1.40;;;13.80;99.90;;;;;;5053193;28;20163;-70
2022/08/06 04:58:03;;;;;;;1.60;1.10;;;13.90;99.90;;;;;;5053495;28;20459;-70
2022/08/06 05:00:29;;;;;;;1.53;1.43;;;13.90;99.90;;;;;;5053187;28;20432;-69
2022/08/06 05:02:54;;;;;;;1.77;1.10;;;13.90;99.90;;;;;;5053141;28;20405;-69
2022/08/06 05:05:21;;;;;;;1.97;0.93;;;13.90;99.90;;;;;;5052827;28;20409;-70
2022/08/06 05:07:49;;;;;;;1.13;1.03;;;14.00;99.90;;;;;;5053382;28;20618;-70
2022/08/06 05:10:15;;;;;;;1.00;0.90;;;14.00;99.90;;;;;;5053249;28;20455;-70
2022/08/06 05:12:48;;;;;;;1.50;1.00;;;13.90;99.90;;;;;;5053118;28;20441;-69
2022/08/06 05:15:22;;;;;;;1.73;0.93;;;14.00;99.90;;;;;;5052851;28;20167;-71
2022/08/06 05:18:07;;;;;;;1.23;1.13;;;13.90;99.90;;;;;;5052816;28;20414;-71
2022/08/06 05:20:35;;;;;;;16.27;10.73;;;13.80;99.90;;;;;;5052656;28;20402;-70
2022/08/06 05:23:10;;;;;;;8.23;1.93;;;14.10;99.90;;;;;;5052918;28;20394;-71
2022/08/06 05:25:36;;;;;;;6.77;1.50;;;14.20;99.90;;;;;;5052601;28;20754;-73
2022/08/06 05:28:06;;;;;;;4.00;1.47;;;14.00;99.90;;;;;;5052994;28;20398;-70
2022/08/06 05:30:32;;;;;;;1.43;1.10;;;14.00;99.90;;;;;;5053037;28;20580;-71
2022/08/06 05:32:58;;;;;;;4.00;1.43;;;14.00;99.90;;;;;;5053389;28;20405;-69
2022/08/06 05:35:24;;;;;;;1.60;1.10;;;14.00;99.90;;;;;;5052207;28;20428;-69
2022/08/06 05:37:50;;;;;;;2.37;1.87;;;14.20;99.90;;;;;;5053240;28;20163;-69
2022/08/06 05:40:16;;;;;;;1.10;1.00;;;14.40;99.90;;;;;;5052879;28;20754;-70
2022/08/06 05:42:41;;;;;;;2.87;0.90;;;14.40;99.90;;;;;;5053039;28;20261;-69
2022/08/06 05:45:10;;;;;;;1.90;1.07;;;14.50;99.90;;;;;;5052748;28;20406;-70
2022/08/06 05:47:39;;;;;;;1.40;1.30;;;15.10;99.90;;;;;;5053290;28;20225;-70
2022/08/06 05:50:08;;;;;;;1.43;1.10;;;15.30;99.90;;;;;;5052617;28;20421;-70
2022/08/06 05:52:44;;;;;;;1.73;0.80;;;16.40;99.90;;;;;;5050708;28;20821;-70
2022/08/06 05:55:27;;;;;;;2.10;1.10;;;16.60;99.90;;;;;;5052090;28;20437;-71
2022/08/06 05:57:59;;;;;;;2.10;0.90;;;16.60;99.90;;;;;;5051862;28;20415;-70
2022/08/06 06:00:29;;;;;;;2.03;0.90;;;16.70;99.90;;;;;;5052344;28;20501;-70
2022/08/06 06:02:58;;;;;;;1.00;0.70;;;16.90;99.90;;;;;;5052369;28;20398;-70
2022/08/06 06:05:25;;;;;;;1.50;1.00;;;17.40;99.90;;;;;;5051599;28;20419;-70
2022/08/06 06:07:52;;;;;;;1.67;0.80;;;17.00;99.90;;;;;;5052530;28;20419;-70
2022/08/06 06:10:18;;;;;;;1.00;0.70;;;17.90;99.90;;;;;;5052155;28;20446;-70
2022/08/06 06:12:45;;;;;;;1.00;0.87;;;17.70;99.90;;;;;;5051961;28;20491;-70
2022/08/06 06:15:12;;;;;;;1.60;0.93;;;18.20;99.90;;;;;;5053897;28;20405;-70
2022/08/06 06:18:04;;;;;;;1.73;0.90;;;18.60;99.90;;;;;;5055886;28;20466;-70
2022/08/06 06:20:49;;;;;;;3.53;1.10;;;19.00;99.90;;;;;;5052178;28;20397;-70
2022/08/06 06:23:23;;;;;;;1.13;0.90;;;19.70;99.90;;;;;;5052104;28;20466;-70
2022/08/06 06:25:58;;;;;;;8.73;2.10;;;19.80;99.90;;;;;;5051718;28;20414;-70
2022/08/06 06:28:39;;;;;;;2.30;1.13;;;19.90;99.90;;;;;;5051995;28;20447;-71
2022/08/06 06:31:05;;;;;;;1.63;0.90;;;20.40;99.90;;;;;;5052106;28;20930;-71
2022/08/06 06:33:47;;;;;;;2.40;1.23;;;20.60;99.90;;;;;;5057742;28;20411;-70
2022/08/06 06:36:34;;;;;;;1.40;1.27;;;20.20;99.90;;;;;;5054905;28;20197;-71
2022/08/06 06:39:06;;;;;;;2.50;1.27;;;21.80;99.90;;;;;;5052550;28;20393;-70
2022/08/06 06:41:42;;;;;;;1.00;0.80;;;22.40;99.90;;;;;;5053675;28;20466;-70
2022/08/06 06:44:07;;;;;;;3.43;1.10;;;21.50;99.90;;;;;;5053247;28;20395;-70
2022/08/06 06:46:57;;;;;;;1.47;1.07;;;20.40;99.90;;;;;;5052923;28;20415;-70
2022/08/06 06:49:39;;;;;;;1.53;0.83;;;20.30;99.90;;;;;;5052174;28;20656;-70
2022/08/06 06:52:21;;;;;;;1.83;0.77;;;22.00;99.90;;;;;;5052787;28;20412;-70
2022/08/06 06:54:52;;;;;;;1.73;1.27;;;22.50;99.90;;;;;;5032888;28;20426;-70
2022/08/06 06:57:24;;;;;;;1.50;1.03;;;22.30;99.90;;;;;;5047212;28;20456;-70
2022/08/06 06:59:52;;;;;;;1.67;1.10;;;22.90;99.90;;;;;;5052585;28;20409;-70
2022/08/06 07:02:24;;;;;;;1.57;0.90;;;23.50;99.90;;;;;;5053026;28;20523;-71
2022/08/06 07:04:52;;;;;;;1.57;0.87;;;23.40;99.90;;;;;;5050755;28;20410;-71
2022/08/06 07:07:18;;;;;;;2.73;0.93;;;24.30;99.90;;;;;;5052386;28;20750;-70
2022/08/06 07:09:44;;;;;;;1.30;0.90;;;22.30;99.90;;;;;;5062681;28;20825;-70
2022/08/06 07:12:18;;;;;;;1.00;0.90;;;23.40;99.90;;;;;;5074436;28;20443;-71
2022/08/06 07:14:45;;;;;;;2.70;1.50;;;23.80;99.90;;;;;;5072549;28;20511;-70
2022/08/06 07:17:12;;;;;;;1.60;1.00;;;23.30;99.90;;;;;;5067156;28;20456;-71
2022/08/06 07:19:38;;;;;;;2.77;1.30;;;21.80;99.90;;;;;;5051565;28;20401;-69
2022/08/06 07:22:04;;;;;;;10.63;3.90;;;23.30;99.90;;;;;;5051107;28;20425;-68
2022/08/06 07:24:33;;;;;;;2.73;2.13;;;23.80;99.90;;;;;;5049559;28;20780;-71
2022/08/06 07:27:01;;;;;;;2.33;1.30;;;25.90;97.40;;;;;;5051032;28;20414;-68
2022/08/06 07:29:28;;;;;;;2.83;1.17;;;25.00;97.40;;;;;;5051601;28;20412;-68
2022/08/06 07:31:55;;;;;;;1.43;0.97;;;23.90;97.50;;;;;;5069215;28;20993;-68
2022/08/06 07:34:21;;;;;;;3.03;1.20;;;24.30;97.70;;;;;;5070927;28;20458;-68
2022/08/06 07:36:51;;;;;;;1.03;0.70;;;23.50;98.80;;;;;;5070771;28;20493;-68
2022/08/06 07:39:23;;;;;;;1.27;1.13;;;23.90;97.90;;;;;;5070904;28;20446;-68
2022/08/06 07:41:52;;;;;;;1.60;0.90;;;22.40;99.90;;;;;;5072620;28;20420;-68
2022/08/06 07:44:20;;;;;;;1.77;0.90;;;22.50;99.90;;;;;;5057101;28;20859;-70
2022/08/06 07:46:50;;;;;;;1.50;1.10;;;23.30;99.30;;;;;;5075417;28;20413;-70
2022/08/06 07:49:19;;;;;;;1.77;0.83;;;23.70;99.10;;;;;;5065824;28;20428;-70
2022/08/06 07:51:46;;;;;;;1.60;0.90;;;23.70;97.60;;;;;;5056629;28;20440;-70
2022/08/06 07:54:14;;;;;;;1.50;0.80;;;21.90;99.90;;;;;;5069738;28;20423;-70
2022/08/06 07:56:42;;;;;;;0.87;0.80;;;23.20;99.80;;;;;;5065029;28;20456;-70
2022/08/06 07:59:09;;;;;;;0.93;0.80;;;23.40;99.20;;;;;;5076100;28;20439;-70
2022/08/06 08:01:36;;;;;;;0.80;0.77;;;23.00;99.00;;;;;;5062198;28;20507;-71
2022/08/06 08:06:51;;;;;;;1.30;0.90;;;24.30;95.70;;;;;;5060395;28;20416;-71
2022/08/06 08:09:20;;;;;;;0.80;0.80;;;25.10;93.70;;;;;;5059859;28;20420;-70
2022/08/06 08:11:46;;;;;;;1.30;0.70;;;23.50;96.20;;;;;;5071333;22;20458;-65
2022/08/06 08:14:13;;;;;;;0.70;0.70;;;24.40;94.80;;;;;;5032750;28;20422;-65
2022/08/06 08:16:42;;;;;;;1.20;0.87;;;24.40;94.90;;;;;;5033821;28;20825;-65
2022/08/06 08:19:32;;;;;;;0.93;0.80;;;25.10;93.80;;;;;;5034509;28;20489;-65
2022/08/06 08:22:05;;;;;;;1.47;0.80;;;24.60;92.70;;;;;;5034250;28;20468;-65
2022/08/06 08:24:32;;;;;;;1.17;1.03;;;25.80;92.10;;;;;;5034043;28;20398;-65
2022/08/06 08:26:59;;;;;;;2.00;0.70;;;25.50;91.40;;;;;;5034442;28;20414;-65
2022/08/06 08:29:25;;;;;;;1.03;0.90;;;24.80;91.80;;;;;;5034426;28;20481;-65
2022/08/06 08:31:51;;;;;;;0.63;0.60;;;24.30;93.40;;;;;;5034448;28;20851;-65
2022/08/06 08:34:16;;;;;;;1.00;0.80;;;23.10;94.10;;;;;;5034420;28;20410;-65
2022/08/06 08:36:42;;;;;;;1.17;0.87;;;23.50;93.60;;;;;;5034027;28;20191;-65
2022/08/06 08:39:08;;;;;;;1.40;0.77;;;23.30;94.50;;;;;;5034158;28;20630;-65
2022/08/06 08:41:39;;;;;;;0.93;0.83;;;23.20;94.20;;;;;;5034048;28;20566;-65
2022/08/06 08:44:06;;;;;;;3.40;2.50;;;22.90;94.40;;;;;;5034448;28;20219;-65
2022/08/06 08:46:38;;;;;;;1.30;0.90;;;22.00;96.30;;;;;;5034077;28;20494;-65
2022/08/06 08:49:05;;;;;;;1.33;0.80;;;22.10;94.20;;;;;;5033886;28;20410;-65
2022/08/06 08:51:38;;;;;;;1.50;0.70;;;22.80;92.80;;;;;;5033968;28;20493;-65
2022/08/06 08:54:07;;;;;;;1.37;1.27;;;23.90;92.10;;;;;;5033204;28;20414;-65
2022/08/06 08:56:34;;;;;;;1.00;0.63;;;23.70;92.10;;;;;;5033445;28;20453;-65
2022/08/06 08:59:01;;;;;;;0.70;0.67;;;22.80;92.40;;;;;;5033979;28;20406;-64
2022/08/06 09:01:27;;;;;;;2.30;1.00;;;22.70;92.40;;;;;;5049403;28;20439;-64
2022/08/06 09:03:52;;;;;;;1.50;0.83;;;22.20;93.10;;;;;;5054040;28;20495;-65
2022/08/06 09:06:20;;;;;;;2.87;1.00;;;23.30;91.90;;;;;;5053673;28;20245;-65
2022/08/06 09:08:47;;;;;;;1.70;1.50;;;24.10;91.50;;;;;;5054069;28;20518;-65
2022/08/06 09:11:14;;;;;;;6.20;2.73;;;24.80;89.40;;;;;;5053978;28;20502;-65
2022/08/06 09:13:40;;;;;;;1.90;0.70;;;25.70;88.50;;;;;;5052844;28;20995;-65
2022/08/06 09:16:06;;;;;;;1.70;1.60;;;24.90;87.00;;;;;;5051831;28;20453;-66
2022/08/06 09:18:32;;;;;;;0.83;0.70;;;24.90;87.50;;;;;;5053261;28;20169;-66
2022/08/06 09:21:01;;;;;;;1.90;1.50;;;23.50;87.20;;;;;;5053214;28;20444;-65
2022/08/06 09:23:27;;;;;;;1.20;1.00;;;22.90;90.50;;;;;;5040252;28;20440;-65
2022/08/06 09:25:53;;;;;;;0.77;0.63;;;23.30;90.90;;;;;;5033068;28;20433;-65
2022/08/06 09:28:34;;;;;;;1.83;0.90;;;23.60;90.00;;;;;;5033047;28;20179;-66
2022/08/06 09:31:20;;;;;;;2.80;0.77;;;24.80;87.20;;;;;;5033000;28;20410;-66
2022/08/06 09:33:56;;;;;;;1.73;1.00;;;23.60;86.80;;;;;;5032486;28;20489;-66
2022/08/06 09:36:22;;;;;;;1.43;0.90;;;24.10;87.60;;;;;;5027707;28;20454;-66
2022/08/06 09:38:49;;;;;;;0.70;0.60;;;24.50;85.60;;;;;;5013407;28;20438;-66
2022/08/06 09:41:16;;;;;;;1.40;0.70;;;23.50;87.80;;;;;;5013165;28;20641;-66
2022/08/06 09:43:43;;;;;;;0.70;0.70;;;23.50;86.20;;;;;;5012944;28;20510;-66
2022/08/06 09:46:09;;;;;;;2.23;0.70;;;21.80;90.70;;;;;;5012892;28;20434;-66
2022/08/06 09:48:35;;;;;;;0.80;0.70;;;22.40;90.70;;;;;;5013167;28;20449;-66
2022/08/06 09:51:01;;;;;;;1.53;0.77;;;22.40;90.70;;;;;;5013166;28;20225;-66
2022/08/06 09:53:27;;;;;;;1.13;0.70;;;23.30;90.60;;;;;;5019180;28;20853;-66
2022/08/06 09:55:55;;;;;;;3.40;0.80;;;23.70;90.20;;;;;;5031342;28;20462;-66
2022/08/06 09:58:33;;;;;;;1.60;0.63;;;24.50;88.60;;;;;;5030402;28;20462;-64
2022/08/06 10:01:21;;;;;;;1.73;0.93;;;24.30;87.60;;;;;;5031535;28;20406;-65
2022/08/06 10:03:47;;;;;;;0.90;0.70;;;24.10;85.20;;;;;;5031186;28;20842;-65
2022/08/06 10:06:20;;;;;;;6.67;4.87;;;23.80;85.10;;;;;;5031886;28;20472;-65
2022/08/06 10:08:50;;;;;;;1.50;0.90;;;23.80;89.20;;;;;;5031214;28;20413;-64
2022/08/06 10:11:33;;;;;;;3.60;2.50;;;22.90;87.40;;;;;;5032116;28;20405;-66
2022/08/06 10:13:59;;;;;;;2.83;1.20;;;23.70;86.50;;;;;;5032325;28;20455;-65
2022/08/06 10:16:26;;;;;;;2.20;2.00;;;23.90;84.50;;;;;;5031837;28;20449;-65
2022/08/06 10:18:53;;;;;;;0.90;0.80;;;23.70;85.80;;;;;;5032410;28;20173;-66
2022/08/06 10:21:22;;;;;;;1.73;1.00;;;22.80;88.10;;;;;;5032155;28;20406;-66
2022/08/06 10:23:50;;;;;;;1.33;1.20;;;23.00;88.90;;;;;;5031621;28;20429;-65
2022/08/06 10:26:29;;;;;;;2.23;1.53;;;23.40;88.90;;;;;;5031689;28;20421;-65
2022/08/06 10:29:00;;;;;;;0.93;0.83;;;23.30;89.20;;;;;;5031992;28;20400;-65
2022/08/06 10:31:26;;;;;;;1.77;1.67;;;23.30;88.80;;;;;;5031880;28;20410;-66
2022/08/06 10:34:00;;;;;;;0.70;0.70;;;23.20;87.20;;;;;;5031863;28;20921;-66
2022/08/06 10:36:31;;;;;;;4.73;0.93;;;22.80;86.80;;;;;;5026555;28;20470;-65
2022/08/06 10:38:57;;;;;;;1.00;0.70;;;23.00;88.80;;;;;;5012204;28;21193;-65
2022/08/06 10:41:23;;;;;;;1.03;0.73;;;22.20;86.20;;;;;;5012230;28;20443;-65
2022/08/06 10:43:49;;;;;;;0.90;0.70;;;22.60;87.60;;;;;;5012361;28;20767;-65
2022/08/06 10:46:19;;;;;;;1.10;0.90;;;22.50;88.00;;;;;;5011752;28;20407;-65
2022/08/06 10:48:49;;;;;;;1.00;0.80;;;22.20;88.50;;;;;;5011943;28;20278;-65
2022/08/06 10:51:15;;;;;;;2.17;1.43;;;21.60;90.70;;;;;;5012944;28;20405;-65
2022/08/06 10:53:45;;;;;;;1.30;0.90;;;21.50;90.70;;;;;;5012529;28;20507;-65
2022/08/06 10:56:14;;;;;;;1.93;1.77;;;21.70;89.50;;;;;;5011882;28;20786;-65
2022/08/06 10:58:40;;;;;;;3.57;0.70;;;22.00;87.90;;;;;;5011936;28;20410;-65
2022/08/06 11:01:08;;;;;;;1.10;0.67;;;22.30;86.10;;;;;;5011985;28;20410;-66
2022/08/06 11:03:47;;;;;;;2.13;1.00;;;22.30;83.80;;;;;;5011500;28;20421;-65
2022/08/06 11:06:39;;;;;;;2.23;1.57;;;22.20;85.90;;;;;;5011801;28;20779;-65
2022/08/06 11:09:55;;;;;;;0.80;0.77;;;22.80;86.00;;;;;;5010724;28;20438;-66
2022/08/06 11:12:38;;;;;;;1.50;1.20;;;22.80;86.20;;;;;;4999366;28;20462;-66
2022/08/06 11:15:06;;;;;;;0.90;0.73;;;21.90;87.60;;;;;;5011552;28;20409;-65
2022/08/06 11:17:46;;;;;;;3.90;2.50;;;21.70;88.10;;;;;;5014396;28;20455;-65
2022/08/06 11:20:31;;;;;;;1.37;1.07;;;22.10;87.50;;;;;;5018425;28;20420;-65
2022/08/06 11:22:57;;;;;;;2.80;1.53;;;22.30;85.10;;;;;;5023633;28;20449;-65
2022/08/06 11:25:44;;;;;;;1.07;0.77;;;22.30;83.40;;;;;;5015635;28;20396;-65
2022/08/06 11:28:15;;;;;;;0.90;0.70;;;22.30;82.00;;;;;;5015659;28;20464;-65
2022/08/06 11:30:53;;;;;;;0.77;0.70;;;21.70;83.80;;;;;;5023578;28;20880;-65
2022/08/06 11:33:39;;;;;;;0.70;0.70;;;21.90;83.30;;;;;;5035108;28;20806;-65
2022/08/06 11:36:12;;;;;;;1.00;0.90;;;21.80;83.70;;;;;;5034615;28;21115;-65
2022/08/06 11:38:46;;;;;;;1.20;0.77;;;21.40;85.20;;;;;;5035008;28;20422;-65
2022/08/06 11:41:27;;;;;;;0.77;0.77;;;21.20;84.80;;;;;;5035260;28;20465;-65
2022/08/06 11:43:52;;;;;;;0.97;0.90;;;21.30;85.20;;;;;;5035102;28;20413;-65
2022/08/06 11:46:18;;;;;;;2.83;0.70;;;21.60;86.00;;;;;;5034643;28;20500;-65
2022/08/06 11:48:58;;;;;;;1.00;0.80;;;21.80;85.10;;;;;;5034689;28;20179;-65
2022/08/06 11:51:50;;;;;;;0.80;0.60;;;22.00;84.20;;;;;;5034649;28;20167;-65
2022/08/06 11:54:19;;;;;;;0.90;0.80;;;22.30;83.40;;;;;;5034721;28;20403;-65
2022/08/06 11:57:06;;;;;;;2.93;0.80;;;22.40;82.30;;;;;;5034490;28;20964;-65
2022/08/06 11:59:37;;;;;;;1.13;1.03;;;22.40;83.30;;;;;;5034764;28;20418;-65
2022/08/06 12:02:09;;;;;;;3.03;2.13;;;22.60;82.40;;;;;;5034537;28;20439;-68
2022/08/06 12:04:35;;;;;;;1.77;1.00;;;22.70;82.30;;;;;;5034339;28;20440;-65
2022/08/06 12:07:25;;;;;;;2.13;1.37;;;22.70;80.40;;;;;;5034233;28;20433;-66
2022/08/06 12:10:04;;;;;;;6.77;1.47;;;22.50;79.00;;;;;;5034694;28;20200;-66
2022/08/06 12:12:31;;;;;;;1.67;1.00;;;23.00;78.40;;;;;;5034319;28;20444;-66
2022/08/06 12:15:26;;;;;;;1.80;0.70;;;23.30;76.70;;;;;;5034222;28;20418;-65
2022/08/06 12:17:57;;;;;;;1.07;0.80;;;22.70;76.60;;;;;;5012433;28;20808;-65
2022/08/06 12:20:35;;;;;;;0.87;0.63;;;23.40;76.00;;;;;;5034285;28;20415;-66
2022/08/06 12:23:06;;;;;;;2.47;0.90;;;22.90;76.30;;;;;;5033925;28;20432;-66
2022/08/06 12:25:38;;;;;;;1.90;1.00;;;22.40;76.80;;;;;;5034005;28;20412;-66
2022/08/06 12:28:05;;;;;;;0.80;0.60;;;22.40;78.20;;;;;;5031666;28;20465;-65
2022/08/06 12:30:45;;;;;;;3.30;1.93;;;22.60;75.60;;;;;;5034222;28;20463;-65
2022/08/06 12:33:12;;;;;;;1.57;0.60;;;23.10;75.00;;;;;;5024235;28;20424;-66
2022/08/06 12:35:56;;;;;;;0.60;0.50;;;22.90;70.50;;;;;;5013732;28;20405;-66
2022/08/06 12:38:25;;;;;;;1.27;0.60;;;22.50;72.30;;;;;;5014868;28;20451;-66
2022/08/06 12:40:55;;;;;;;2.17;1.50;;;22.20;74.20;;;;;;5014356;28;20416;-67
2022/08/06 12:43:20;;;;;;;2.10;1.00;;;22.50;75.50;;;;;;5014579;28;20441;-67
2022/08/06 12:45:46;;;;;;;2.07;1.30;;;22.50;74.60;;;;;;5014216;28;20442;-67
2022/08/06 12:48:12;;;;;;;1.30;0.90;;;22.10;75.60;;;;;;5013983;28;20540;-67
2022/08/06 12:50:41;;;;;;;0.80;0.60;;;22.00;75.70;;;;;;5012660;28;20645;-70
2022/08/06 12:53:15;;;;;;;1.00;0.90;;;21.80;76.20;;;;;;5014217;28;20423;-66
2022/08/06 12:55:49;;;;;;;2.00;0.90;;;21.70;77.60;;;;;;5013751;28;20398;-65
2022/08/06 12:58:17;;;;;;;0.73;0.60;;;21.80;75.50;;;;;;5014063;28;20410;-66
2022/08/06 13:00:46;;;;;;;1.73;0.90;;;22.00;75.30;;;;;;5024623;28;20465;-66
2022/08/06 13:03:13;;;;;;;2.20;0.90;;;21.60;75.80;;;;;;5033707;28;20617;-66
2022/08/06 13:05:42;;;;;;;1.00;0.70;;;21.70;76.10;;;;;;5033323;28;20404;-66